Time,TemperatureF,DewpointF,PressureIn,WindDirection,WindDirectionDegrees,WindSpeedMPH,WindSpeedGustMPH,Humidity,HourlyPrecipIn,Conditions,Clouds,dailyrainin,SolarRadiationWatts/m^2,SoftwareType,DateUTC
2013-02-15 00:01:00,47.0,13.0,30.17,North,353,11.0,19.0,25,-99.99,,,-99.99,0.000000,,2013-02-15 07:01:00,
2013-02-15 00:11:00,47.0,14.0,30.18,North,358,13.0,23.0,26,-99.99,,,-99.99,0.000000,,2013-02-15 07:11:00,
2013-02-15 00:21:00,47.0,14.0,30.18,North,358,13.0,23.0,26,-99.99,,,-99.99,0.000000,,2013-02-15 07:21:00,
2013-02-15 00:31:00,47.0,14.0,30.18,North,359,14.0,24.0,26,-99.99,,,-99.99,0.000000,,2013-02-15 07:31:00,
2013-02-15 00:42:00,47.0,14.0,30.19,North,353,13.0,20.0,26,-99.99,,,-99.99,0.000000,,2013-02-15 07:42:00,
2013-02-15 00:52:00,47.0,14.0,30.19,North,353,13.0,20.0,26,-99.99,,,-99.99,0.000000,,2013-02-15 07:52:00,
2013-02-15 01:01:00,46.0,14.0,30.19,NNW,341,13.0,19.0,27,-99.99,,,-99.99,0.000000,,2013-02-15 08:01:00,
2013-02-15 01:11:00,45.0,14.0,30.20,NNW,336,15.0,20.0,27,-99.99,,,-99.99,0.000000,,2013-02-15 08:11:00,
2013-02-15 01:21:00,45.0,14.0,30.20,NNW,336,15.0,20.0,27,-99.99,,,-99.99,0.000000,,2013-02-15 08:21:00,
2013-02-15 01:31:00,45.0,14.0,30.20,NNW,333,14.0,21.0,27,-99.99,,,-99.99,0.000000,,2013-02-15 08:31:00,
2013-02-15 01:42:00,45.0,14.0,30.21,NNW,329,12.0,18.0,28,-99.99,,,-99.99,0.000000,,2013-02-15 08:42:00,
2013-02-15 01:53:00,45.0,14.0,30.21,NNW,329,12.0,18.0,28,-99.99,,,-99.99,0.000000,,2013-02-15 08:53:00,
2013-02-15 02:01:00,45.0,14.0,30.21,NNW,329,12.0,18.0,28,-99.99,,,-99.99,0.000000,,2013-02-15 09:01:00,
2013-02-15 02:12:00,45.0,14.0,30.21,WNW,286,13.0,19.0,28,-99.99,,,-99.99,0.000000,,2013-02-15 09:12:00,
2013-02-15 02:21:00,45.0,14.0,30.21,WNW,286,13.0,19.0,28,-99.99,,,-99.99,0.000000,,2013-02-15 09:21:00,
2013-02-15 02:32:00,45.0,14.0,30.21,WNW,302,10.0,18.0,28,-99.99,,,-99.99,0.000000,,2013-02-15 09:32:00,
2013-02-15 02:42:00,45.0,14.0,30.21,WNW,303,13.0,19.0,28,-99.99,,,-99.99,0.000000,,2013-02-15 09:42:00,
2013-02-15 02:52:00,45.0,14.0,30.21,WNW,303,13.0,19.0,28,-99.99,,,-99.99,0.000000,,2013-02-15 09:52:00,
2013-02-15 03:01:00,44.0,14.0,30.21,NW,316,12.0,18.0,29,-99.99,,,-99.99,0.000000,,2013-02-15 10:01:00,
2013-02-15 03:11:00,44.0,15.0,30.21,NNW,337,7.0,11.0,30,-99.99,,,-99.99,0.000000,,2013-02-15 10:11:00,
2013-02-15 03:21:00,44.0,15.0,30.21,NNW,337,7.0,11.0,30,-99.99,,,-99.99,0.000000,,2013-02-15 10:21:00,
2013-02-15 03:31:00,39.0,14.0,30.21,SSW,196,4.0,8.0,35,-99.99,,,-99.99,0.000000,,2013-02-15 10:31:00,
2013-02-15 03:41:00,39.0,15.0,30.21,WNW,289,6.0,10.0,36,-99.99,,,-99.99,0.000000,,2013-02-15 10:41:00,
2013-02-15 03:52:00,39.0,15.0,30.21,WNW,289,6.0,10.0,36,-99.99,,,-99.99,0.000000,,2013-02-15 10:52:00,
2013-02-15 04:01:00,39.0,15.0,30.20,WNW,303,10.0,14.0,37,-99.99,,,-99.99,0.000000,,2013-02-15 11:01:00,
2013-02-15 04:11:00,38.0,16.0,30.20,NW,325,11.0,16.0,39,-99.99,,,-99.99,0.000000,,2013-02-15 11:11:00,
2013-02-15 04:23:00,38.0,16.0,30.20,NW,325,11.0,16.0,39,-99.99,,,-99.99,0.000000,,2013-02-15 11:23:00,
2013-02-15 04:32:00,39.0,16.0,30.21,NNW,343,7.0,12.0,39,-99.99,,,-99.99,0.000000,,2013-02-15 11:32:00,
2013-02-15 04:42:00,38.0,17.0,30.22,NNW,342,2.0,6.0,41,-99.99,,,-99.99,0.000000,,2013-02-15 11:42:00,
2013-02-15 04:52:00,38.0,17.0,30.22,NNW,342,2.0,6.0,41,-99.99,,,-99.99,0.000000,,2013-02-15 11:52:00,
2013-02-15 05:02:00,38.0,17.0,30.22,NNW,330,3.0,6.0,40,-99.99,,,-99.99,0.000000,,2013-02-15 12:02:00,
2013-02-15 05:11:00,38.0,16.0,30.22,NNW,340,4.0,6.0,41,-99.99,,,-99.99,0.000000,,2013-02-15 12:11:00,
2013-02-15 05:21:00,38.0,16.0,30.22,NNW,340,4.0,6.0,41,-99.99,,,-99.99,0.000000,,2013-02-15 12:21:00,
2013-02-15 05:32:00,38.0,17.0,30.23,North,354,3.0,4.0,41,-99.99,,,-99.99,0.000000,,2013-02-15 12:32:00,
2013-02-15 05:42:00,36.0,16.0,30.24,NNW,345,3.0,5.0,43,-99.99,,,-99.99,0.000000,,2013-02-15 12:42:00,
2013-02-15 05:52:00,36.0,16.0,30.24,NNW,345,3.0,5.0,43,-99.99,,,-99.99,0.000000,,2013-02-15 12:52:00,
2013-02-15 06:02:00,36.0,16.0,30.24,NNW,327,5.0,7.0,44,-99.99,,,-99.99,0.000000,,2013-02-15 13:02:00,
2013-02-15 06:11:00,34.0,17.0,30.24,NW,323,5.0,7.0,47,-99.99,,,-99.99,0.000000,,2013-02-15 13:11:00,
2013-02-15 06:22:00,34.0,17.0,30.24,NW,323,5.0,7.0,47,-99.99,,,-99.99,0.000000,,2013-02-15 13:22:00,
2013-02-15 06:32:00,35.0,17.0,30.25,North,350,3.0,5.0,46,-99.99,,,-99.99,0.000000,,2013-02-15 13:32:00,
2013-02-15 06:42:00,35.0,16.0,30.26,North,10,2.0,5.0,46,-99.99,,,-99.99,0.000000,,2013-02-15 13:42:00,
2013-02-15 06:52:00,35.0,16.0,30.26,North,10,2.0,5.0,46,-99.99,,,-99.99,0.000000,,2013-02-15 13:52:00,
2013-02-15 07:01:00,34.0,17.0,30.27,SSW,193,1.0,4.0,48,-99.99,,,-99.99,0.000000,,2013-02-15 14:01:00,
2013-02-15 07:12:00,33.0,18.0,30.28,WSW,245,3.0,6.0,52,-99.99,,,-99.99,0.700000,,2013-02-15 14:12:00,
2013-02-15 07:21:00,33.0,18.0,30.28,WSW,245,3.0,6.0,52,-99.99,,,-99.99,0.700000,,2013-02-15 14:21:00,
2013-02-15 07:32:00,32.0,18.0,30.28,WNW,298,4.0,8.0,55,-99.99,,,-99.99,5.580000,,2013-02-15 14:32:00,
2013-02-15 07:42:00,33.0,19.0,30.29,WNW,301,5.0,8.0,55,-99.99,,,-99.99,25.100000,,2013-02-15 14:42:00,
2013-02-15 07:52:00,33.0,19.0,30.29,WNW,301,5.0,8.0,55,-99.99,,,-99.99,25.100000,,2013-02-15 14:52:00,
2013-02-15 08:01:00,34.0,20.0,30.30,SSW,200,3.0,6.0,57,-99.99,,,-99.99,65.550003,,2013-02-15 15:01:00,
2013-02-15 08:11:00,36.0,21.0,30.31,SSW,194,0.0,1.0,54,-99.99,,,-99.99,131.800003,,2013-02-15 15:11:00,
2013-02-15 08:21:00,36.0,21.0,30.31,SSW,194,0.0,1.0,54,-99.99,,,-99.99,131.800003,,2013-02-15 15:21:00,
2013-02-15 08:32:00,37.0,22.0,30.32,WNW,298,1.0,3.0,54,-99.99,,,-99.99,179.210007,,2013-02-15 15:32:00,
2013-02-15 08:42:00,37.0,23.0,30.33,South,171,4.0,9.0,55,-99.99,,,-99.99,255.220001,,2013-02-15 15:42:00,
2013-02-15 08:52:00,37.0,23.0,30.33,South,171,4.0,9.0,55,-99.99,,,-99.99,255.220001,,2013-02-15 15:52:00,
2013-02-15 09:01:00,38.0,25.0,30.34,South,173,4.0,7.0,58,-99.99,,,-99.99,320.769989,,2013-02-15 16:01:00,
2013-02-15 09:11:00,38.0,25.0,30.35,SSE,156,5.0,9.0,61,-99.99,,,-99.99,345.880005,,2013-02-15 16:11:00,
2013-02-15 09:22:00,38.0,25.0,30.35,SSE,156,5.0,9.0,61,-99.99,,,-99.99,345.880005,,2013-02-15 16:22:00,
2013-02-15 09:32:00,38.0,26.0,30.35,SSE,165,4.0,7.0,61,-99.99,,,-99.99,377.950012,,2013-02-15 16:32:00,
2013-02-15 09:42:00,38.0,26.0,30.35,South,170,6.0,9.0,60,-99.99,,,-99.99,449.779999,,2013-02-15 16:42:00,
2013-02-15 09:52:00,38.0,26.0,30.35,South,170,6.0,9.0,60,-99.99,,,-99.99,449.779999,,2013-02-15 16:52:00,
2013-02-15 10:01:00,39.0,26.0,30.35,South,187,5.0,12.0,59,-99.99,,,-99.99,538.340027,,2013-02-15 17:01:00,
2013-02-15 10:11:00,39.0,27.0,30.36,SSE,162,6.0,11.0,59,-99.99,,,-99.99,580.880005,,2013-02-15 17:11:00,
2013-02-15 10:21:00,39.0,27.0,30.36,SSE,162,6.0,11.0,59,-99.99,,,-99.99,580.880005,,2013-02-15 17:21:00,
2013-02-15 10:32:00,39.0,27.0,30.36,SSE,162,6.0,11.0,60,-99.99,,,-99.99,624.809998,,2013-02-15 17:32:00,
2013-02-15 10:42:00,40.0,27.0,30.37,SSE,157,5.0,12.0,59,-99.99,,,-99.99,625.510010,,2013-02-15 17:42:00,
2013-02-15 10:52:00,40.0,27.0,30.37,SSE,157,5.0,12.0,59,-99.99,,,-99.99,625.510010,,2013-02-15 17:52:00,
2013-02-15 11:01:00,40.0,27.0,30.37,SSE,160,5.0,11.0,58,-99.99,,,-99.99,647.820007,,2013-02-15 18:01:00,
2013-02-15 11:11:00,41.0,27.0,30.36,South,170,5.0,10.0,56,-99.99,,,-99.99,763.580017,,2013-02-15 18:11:00,
2013-02-15 11:21:00,41.0,27.0,30.36,South,170,5.0,10.0,56,-99.99,,,-99.99,763.580017,,2013-02-15 18:21:00,
2013-02-15 11:32:00,41.0,26.0,30.36,SSE,149,4.0,10.0,55,-99.99,,,-99.99,763.580017,,2013-02-15 18:32:00,
2013-02-15 11:42:00,42.0,26.0,30.36,SE,144,4.0,10.0,53,-99.99,,,-99.99,811.700012,,2013-02-15 18:42:00,
2013-02-15 11:53:00,42.0,26.0,30.36,SE,144,4.0,10.0,53,-99.99,,,-99.99,811.700012,,2013-02-15 18:53:00,
2013-02-15 12:01:00,43.0,26.0,30.35,South,174,4.0,9.0,52,-99.99,,,-99.99,878.640015,,2013-02-15 19:01:00,
2013-02-15 12:11:00,43.0,26.0,30.34,SSE,149,5.0,11.0,51,-99.99,,,-99.99,888.400024,,2013-02-15 19:11:00,
2013-02-15 12:22:00,43.0,26.0,30.34,SSE,149,5.0,11.0,51,-99.99,,,-99.99,888.400024,,2013-02-15 19:22:00,
2013-02-15 12:32:00,43.0,26.0,30.34,SE,135,5.0,13.0,50,-99.99,,,-99.99,906.530029,,2013-02-15 19:32:00,
2013-02-15 12:41:00,45.0,26.0,30.33,SE,129,4.0,12.0,46,-99.99,,,-99.99,898.859985,,2013-02-15 19:41:00,
2013-02-15 12:52:00,45.0,26.0,30.33,SE,129,4.0,12.0,46,-99.99,,,-99.99,898.859985,,2013-02-15 19:52:00,
2013-02-15 13:01:00,45.0,25.0,30.32,South,174,4.0,14.0,45,-99.99,,,-99.99,955.349976,,2013-02-15 20:01:00,
2013-02-15 13:11:00,46.0,25.0,30.31,South,178,5.0,12.0,43,-99.99,,,-99.99,956.039978,,2013-02-15 20:11:00,
2013-02-15 13:21:00,46.0,25.0,30.31,South,178,5.0,12.0,43,-99.99,,,-99.99,956.039978,,2013-02-15 20:21:00,
2013-02-15 13:32:00,46.0,25.0,30.30,SSE,160,5.0,9.0,42,-99.99,,,-99.99,944.190002,,2013-02-15 20:32:00,
2013-02-15 13:42:00,48.0,24.0,30.30,SE,129,5.0,10.0,39,-99.99,,,-99.99,955.349976,,2013-02-15 20:42:00,
2013-02-15 13:52:00,48.0,24.0,30.30,SE,129,5.0,10.0,39,-99.99,,,-99.99,955.349976,,2013-02-15 20:52:00,
2013-02-15 14:01:00,48.0,24.0,30.29,SE,141,5.0,10.0,37,-99.99,,,-99.99,946.979980,,2013-02-15 21:01:00,
2013-02-15 14:11:00,50.0,23.0,30.28,South,171,5.0,13.0,34,-99.99,,,-99.99,932.330017,,2013-02-15 21:11:00,
2013-02-15 14:21:00,50.0,23.0,30.28,South,171,5.0,13.0,34,-99.99,,,-99.99,932.330017,,2013-02-15 21:21:00,
2013-02-15 14:31:00,49.0,22.0,30.28,SSE,147,5.0,12.0,33,-99.99,,,-99.99,917.690002,,2013-02-15 21:31:00,
2013-02-15 14:42:00,50.0,22.0,30.27,SE,140,8.0,15.0,32,-99.99,,,-99.99,844.469971,,2013-02-15 21:42:00,
2013-02-15 14:52:00,50.0,22.0,30.27,SE,140,8.0,15.0,32,-99.99,,,-99.99,844.469971,,2013-02-15 21:52:00,
2013-02-15 15:02:00,51.0,20.0,30.27,SE,144,7.0,13.0,29,-99.99,,,-99.99,785.890015,,2013-02-15 22:02:00,
2013-02-15 15:11:00,51.0,20.0,30.27,ENE,74,6.0,15.0,28,-99.99,,,-99.99,584.369995,,2013-02-15 22:11:00,
2013-02-15 15:21:00,51.0,20.0,30.27,ENE,74,6.0,15.0,28,-99.99,,,-99.99,584.369995,,2013-02-15 22:21:00,
2013-02-15 15:31:00,50.0,21.0,30.28,ESE,118,5.0,11.0,30,-99.99,,,-99.99,546.710022,,2013-02-15 22:31:00,
2013-02-15 15:41:00,50.0,21.0,30.28,ESE,120,6.0,12.0,30,-99.99,,,-99.99,546.710022,,2013-02-15 22:41:00,
2013-02-15 15:52:00,50.0,21.0,30.28,ESE,120,6.0,12.0,30,-99.99,,,-99.99,546.710022,,2013-02-15 22:52:00,
2013-02-15 16:02:00,50.0,21.0,30.28,ESE,119,5.0,10.0,30,-99.99,,,-99.99,426.769989,,2013-02-15 23:02:00,
2013-02-15 16:11:00,50.0,21.0,30.28,ESE,111,6.0,11.0,31,-99.99,,,-99.99,378.649994,,2013-02-15 23:11:00,
2013-02-15 16:21:00,50.0,21.0,30.28,ESE,111,6.0,11.0,31,-99.99,,,-99.99,378.649994,,2013-02-15 23:21:00,
2013-02-15 16:31:00,50.0,21.0,30.28,East,98,5.0,9.0,31,-99.99,,,-99.99,396.779999,,2013-02-15 23:31:00,
2013-02-15 16:42:00,50.0,21.0,30.28,East,88,3.0,7.0,31,-99.99,,,-99.99,400.970001,,2013-02-15 23:42:00,
2013-02-15 16:52:00,50.0,21.0,30.28,East,88,3.0,7.0,31,-99.99,,,-99.99,400.970001,,2013-02-15 23:52:00,
2013-02-15 17:02:00,50.0,21.0,30.28,ESE,114,3.0,6.0,31,-99.99,,,-99.99,267.779999,,2013-02-16 00:02:00,
2013-02-15 17:11:00,50.0,21.0,30.28,ESE,114,3.0,7.0,31,-99.99,,,-99.99,182.699997,,2013-02-16 00:11:00,
2013-02-15 17:21:00,50.0,21.0,30.28,ESE,114,3.0,7.0,31,-99.99,,,-99.99,182.699997,,2013-02-16 00:21:00,
2013-02-15 17:32:00,50.0,20.0,30.28,ESE,117,3.0,5.0,31,-99.99,,,-99.99,127.610001,,2013-02-16 00:32:00,
2013-02-15 17:41:00,50.0,20.0,30.28,ESE,117,3.0,5.0,31,-99.99,,,-99.99,127.610001,,2013-02-16 00:41:00,
2013-02-15 17:52:00,50.0,20.0,30.28,ESE,117,3.0,5.0,31,-99.99,,,-99.99,127.610001,,2013-02-16 00:52:00,
2013-02-15 18:02:00,48.0,20.0,30.29,WSW,250,4.0,5.0,32,-99.99,,,-99.99,57.180000,,2013-02-16 01:02:00,
2013-02-15 18:11:00,46.0,20.0,30.29,West,268,4.0,6.0,34,-99.99,,,-99.99,16.740000,,2013-02-16 01:11:00,
2013-02-15 18:21:00,46.0,20.0,30.29,West,268,4.0,6.0,34,-99.99,,,-99.99,16.740000,,2013-02-16 01:21:00,
2013-02-15 18:32:00,44.0,20.0,30.29,WNW,282,6.0,7.0,37,-99.99,,,-99.99,4.880000,,2013-02-16 01:32:00,
2013-02-15 18:42:00,44.0,21.0,30.29,West,273,6.0,7.0,38,-99.99,,,-99.99,0.700000,,2013-02-16 01:42:00,
2013-02-15 18:52:00,44.0,21.0,30.29,West,273,6.0,7.0,38,-99.99,,,-99.99,0.700000,,2013-02-16 01:52:00,
2013-02-15 19:01:00,44.0,21.0,30.29,WNW,287,7.0,10.0,39,-99.99,,,-99.99,0.000000,,2013-02-16 02:01:00,
2013-02-15 19:11:00,43.0,20.0,30.29,WNW,293,8.0,11.0,39,-99.99,,,-99.99,0.000000,,2013-02-16 02:11:00,
2013-02-15 19:21:00,43.0,20.0,30.29,WNW,293,8.0,11.0,39,-99.99,,,-99.99,0.000000,,2013-02-16 02:21:00,
2013-02-15 19:31:00,43.0,20.0,30.30,WNW,300,8.0,10.0,38,-99.99,,,-99.99,0.000000,,2013-02-16 02:31:00,
2013-02-15 19:42:00,43.0,19.0,30.30,NW,307,9.0,11.0,37,-99.99,,,-99.99,0.000000,,2013-02-16 02:42:00,
2013-02-15 19:52:00,43.0,19.0,30.30,NW,307,9.0,11.0,37,-99.99,,,-99.99,0.000000,,2013-02-16 02:52:00,
2013-02-15 20:01:00,44.0,18.0,30.31,NW,306,9.0,11.0,34,-99.99,,,-99.99,0.000000,,2013-02-16 03:01:00,
2013-02-15 20:11:00,43.0,13.0,30.31,NW,311,9.0,12.0,28,-99.99,,,-99.99,0.000000,,2013-02-16 03:11:00,
2013-02-15 20:21:00,43.0,13.0,30.31,NW,311,9.0,12.0,28,-99.99,,,-99.99,0.000000,,2013-02-16 03:21:00,
2013-02-15 20:32:00,42.0,10.0,30.32,NW,304,11.0,12.0,26,-99.99,,,-99.99,0.000000,,2013-02-16 03:32:00,
2013-02-15 20:41:00,42.0,9.0,30.32,NW,307,10.0,12.0,25,-99.99,,,-99.99,0.000000,,2013-02-16 03:41:00,
2013-02-15 20:52:00,42.0,9.0,30.32,NW,307,10.0,12.0,25,-99.99,,,-99.99,0.000000,,2013-02-16 03:52:00,
2013-02-15 21:01:00,43.0,8.0,30.33,NW,319,9.0,12.0,22,-99.99,,,-99.99,0.000000,,2013-02-16 04:01:00,
2013-02-15 21:11:00,44.0,7.0,30.33,NW,319,9.0,11.0,20,-99.99,,,-99.99,0.000000,,2013-02-16 04:11:00,
2013-02-15 21:21:00,44.0,7.0,30.33,NW,319,9.0,11.0,20,-99.99,,,-99.99,0.000000,,2013-02-16 04:21:00,
2013-02-15 21:32:00,42.0,7.0,30.33,NW,320,8.0,9.0,22,-99.99,,,-99.99,0.000000,,2013-02-16 04:32:00,
2013-02-15 21:41:00,43.0,6.0,30.34,NW,322,10.0,11.0,21,-99.99,,,-99.99,0.000000,,2013-02-16 04:41:00,
2013-02-15 21:52:00,43.0,6.0,30.34,NW,322,10.0,11.0,21,-99.99,,,-99.99,0.000000,,2013-02-16 04:52:00,
2013-02-15 22:01:00,42.0,6.0,30.35,NW,316,7.0,9.0,22,-99.99,,,-99.99,0.000000,,2013-02-16 05:01:00,
2013-02-15 22:12:00,40.0,6.0,30.35,NW,312,8.0,10.0,24,-99.99,,,-99.99,0.000000,,2013-02-16 05:12:00,
2013-02-15 22:22:00,40.0,6.0,30.35,NW,312,8.0,10.0,24,-99.99,,,-99.99,0.000000,,2013-02-16 05:22:00,
2013-02-15 22:32:00,39.0,7.0,30.35,WNW,292,7.0,9.0,25,-99.99,,,-99.99,0.000000,,2013-02-16 05:32:00,
2013-02-15 22:42:00,40.0,7.0,30.35,WNW,300,8.0,10.0,25,-99.99,,,-99.99,0.000000,,2013-02-16 05:42:00,
2013-02-15 22:52:00,40.0,7.0,30.35,WNW,300,8.0,10.0,25,-99.99,,,-99.99,0.000000,,2013-02-16 05:52:00,
2013-02-15 23:02:00,39.0,7.0,30.35,WNW,301,8.0,10.0,25,-99.99,,,-99.99,0.000000,,2013-02-16 06:02:00,
2013-02-15 23:11:00,41.0,9.0,30.36,NW,311,9.0,11.0,26,-99.99,,,-99.99,0.000000,,2013-02-16 06:11:00,
2013-02-15 23:21:00,41.0,9.0,30.36,NW,311,9.0,11.0,26,-99.99,,,-99.99,0.000000,,2013-02-16 06:21:00,
2013-02-15 23:32:00,41.0,11.0,30.36,NW,313,9.0,12.0,28,-99.99,,,-99.99,0.000000,,2013-02-16 06:32:00,
2013-02-15 23:42:00,42.0,12.0,30.37,NW,314,8.0,9.0,29,-99.99,,,-99.99,0.000000,,2013-02-16 06:42:00,
2013-02-15 23:52:00,42.0,12.0,30.37,NW,314,8.0,9.0,29,-99.99,,,-99.99,0.000000,,2013-02-16 06:52:00,